Bancroft, NE (68004)

19:15 CDT le 01 août 2015 (GMT -0500)
Beemer NE | | Change Station
CLOSE
Current Station
Stations météorologiques personnelles
Location: Beemer, NE
Altitude: 1417 ft
Stations météo à proximité

Alt. 1417 ft 41.96 °N, 96.81 °W | Updated 9 minutes ago

Ciel dégagé
Ciel dégagé
80.6 ° F
Paraît 84 ° F
N
5.8
Vent Variable Vent de SSE

Aujourd'hui
Haut(e) -- | Bas -- ° F
--% Risque de précip.
Hier
Haut(e) -- | Bas -- ° F
Precip. -- pouce
6:19 AM 8:45 PM
Lune gibbeuse décroissante, 97% visible
Pression 29.90 pouce
Visibilité 10.0 Miles terrestres
Nuages Ciel dégagé
indice de chaleur 84 ° F
Point de rosée 69 ° F
Humidité 68%
Précipitations 0.00 pouce
Profondeur de la couche neigeuse Non disponible.
UV 1 sur 12
Pollen 5.40 sur 12
Qualité de l'air Non disponible.
Flu Activity Non disponible.
METAR KLCG 012355Z AUTO 16008KT 10SM CLR 27/20 A2990 RMK AO2 T02700199 10290 20232

More Conditions Fewer Conditions

Pression 29.90 pouce
Visibilité 10.0 Miles terrestres
Nuages Ciel dégagé
indice de chaleur 84 ° F
Point de rosée 69 ° F
Humidité 68%
Précipitations 0.00 pouce
Profondeur de la couche neigeuse Non disponible.
UV 1 sur 12
Pollen 5.40 sur 12
Qualité de l'air Non disponible.
Flu Activity Non disponible.
METAR KLCG 012355Z AUTO 16008KT 10SM CLR 27/20 A2990 RMK AO2 T02700199 10290 20232

More Conditions Fewer Conditions

10-Day Weather Forecast

×

Almanac

Astronomie

Aug. 01, 2015 Lever Coucher
Temps réel
Crépuscule civil
Crépuscule nautique
Crépuscule astronomique
Lune
Durée de lumière visible
Longueur du jour
Tomorrow will be .
, % of the Moon is Illuminated

Extrêmes aujourd'hui

State Highs State Lows

Community

WunderPhotos

Upload Photos

1,843,102 Photos téléchargées !

WunderBlogs® & News

Nearby

Qualité de l'air

  Qualité de l'air Indice de la qualité de l'air Polluant
Not available.

Épaisseur de neige

Station Depth Altitude

Activité sismique

Ville Distance Mag. Time & Date
Minimum magnitude displayed is 2.5.

Températures des eaux côtières

Lieu Température

Stations

Stations météo à proximité

Emplacement de la station Température Refroidissement éolien Point de rosée Humidité Vent Precip. Alt. Mise à jour Type